createdAt,value
2023-02-02T00:02:06.229Z,4.70
2023-02-02T00:04:35.423Z,4.70
2023-02-02T00:07:05.113Z,4.70
2023-02-02T00:09:32.839Z,4.70
2023-02-02T00:12:00.619Z,4.70
2023-02-02T00:14:27.532Z,4.70
2023-02-02T00:16:55.839Z,4.50
2023-02-02T00:19:30.369Z,4.70
2023-02-02T00:21:57.832Z,4.60
2023-02-02T00:24:24.944Z,4.50
2023-02-02T00:26:55.146Z,4.50
2023-02-02T00:29:27.374Z,4.50
2023-02-02T00:31:54.340Z,4.50
2023-02-02T00:34:22.014Z,4.50
2023-02-02T00:36:49.725Z,4.60
2023-02-02T00:39:20.085Z,4.60
2023-02-02T00:41:47.478Z,4.70
2023-02-02T00:44:33.261Z,4.70
2023-02-02T00:47:00.084Z,4.70
2023-02-02T00:49:27.003Z,4.60
2023-02-02T00:51:53.942Z,4.60
2023-02-02T00:54:20.951Z,4.50
2023-02-02T00:56:48.097Z,4.60
2023-02-02T00:59:14.927Z,4.70
2023-02-02T01:01:41.785Z,4.70
2023-02-02T01:04:08.569Z,4.70
2023-02-02T01:06:35.476Z,4.70
2023-02-02T01:09:02.528Z,4.70
2023-02-02T01:11:31.034Z,4.70
2023-02-02T01:13:58.163Z,4.70
2023-02-02T01:16:25.116Z,4.60
2023-02-02T01:18:52.458Z,4.60
2023-02-02T01:21:19.609Z,4.60
2023-02-02T01:23:46.588Z,4.70
2023-02-02T01:26:14.066Z,4.70
2023-02-02T01:28:41.201Z,4.70
2023-02-02T01:31:14.073Z,4.70
2023-02-02T01:33:41.881Z,4.70
2023-02-02T01:36:16.429Z,4.70
2023-02-02T01:38:43.879Z,4.70
2023-02-02T01:41:23.041Z,4.70
2023-02-02T01:43:55.020Z,4.70
2023-02-02T01:46:26.736Z,4.70
2023-02-02T01:49:02.072Z,4.70
2023-02-02T01:51:38.380Z,4.70
2023-02-02T01:54:12.656Z,4.70
2023-02-02T01:56:51.461Z,4.80
2023-02-02T01:59:19.040Z,4.70
2023-02-02T02:01:48.042Z,4.70
2023-02-02T02:04:15.679Z,4.70
2023-02-02T02:06:45.355Z,4.70
2023-02-02T02:09:12.212Z,4.70
2023-02-02T02:11:39.006Z,4.60
2023-02-02T02:14:28.651Z,4.50
2023-02-02T02:17:20.931Z,4.50
2023-02-02T02:20:26.631Z,4.50
2023-02-02T02:23:50.459Z,4.50
2023-02-02T02:26:35.225Z,4.50
2023-02-02T02:29:22.580Z,4.50
2023-02-02T02:32:14.209Z,4.40
2023-02-02T02:34:57.834Z,4.40
2023-02-02T02:37:33.136Z,4.50
2023-02-02T02:40:03.092Z,4.50
2023-02-02T02:42:35.136Z,4.60
2023-02-02T02:45:04.898Z,4.50
2023-02-02T02:47:32.401Z,4.60
2023-02-02T02:49:59.186Z,4.60
2023-02-02T02:52:26.036Z,4.50
2023-02-02T02:54:55.754Z,4.50
2023-02-02T02:57:41.262Z,4.50
2023-02-02T03:00:24.432Z,4.50
2023-02-02T03:03:05.080Z,4.50
2023-02-02T03:05:34.014Z,4.50
2023-02-02T03:08:14.939Z,4.50
2023-02-02T03:10:44.512Z,4.60
2023-02-02T03:13:13.007Z,4.70
2023-02-02T03:15:45.992Z,4.70
2023-02-02T03:18:15.393Z,4.60
2023-02-02T03:20:44.696Z,4.60
2023-02-02T03:23:11.424Z,4.60
2023-02-02T03:25:38.286Z,4.70
2023-02-02T03:28:06.075Z,4.70
2023-02-02T03:30:33.966Z,4.60
2023-02-02T03:33:00.994Z,4.50
2023-02-02T03:35:27.847Z,4.50
2023-02-02T03:37:54.599Z,4.50
2023-02-02T03:40:21.302Z,4.60
2023-02-02T03:42:48.123Z,4.70
2023-02-02T03:45:15.084Z,4.70
2023-02-02T03:47:41.786Z,4.70
2023-02-02T03:50:10.019Z,4.70
2023-02-02T03:52:37.065Z,4.70
2023-02-02T03:55:04.472Z,4.70
2023-02-02T03:57:31.297Z,4.70
2023-02-02T03:59:58.100Z,4.70
2023-02-02T04:02:24.827Z,4.70
2023-02-02T04:04:51.660Z,4.70
2023-02-02T04:07:18.352Z,4.80
2023-02-02T04:09:45.116Z,4.80
2023-02-02T04:12:11.862Z,4.90
2023-02-02T04:14:38.593Z,4.80
2023-02-02T04:17:05.349Z,4.90
2023-02-02T04:19:32.144Z,4.90
2023-02-02T04:21:59.023Z,4.90
2023-02-02T04:24:25.831Z,4.90
2023-02-02T04:26:52.611Z,4.90
2023-02-02T04:29:19.527Z,4.90
2023-02-02T04:31:46.341Z,4.90
2023-02-02T04:34:13.116Z,4.90
2023-02-02T04:36:39.918Z,4.90
2023-02-02T04:39:06.626Z,5.00
2023-02-02T04:41:33.432Z,5.00
2023-02-02T04:44:00.140Z,5.00
2023-02-02T04:46:28.589Z,5.00
2023-02-02T04:48:55.429Z,5.00
2023-02-02T04:51:22.177Z,5.00
2023-02-02T04:53:48.977Z,4.90
2023-02-02T04:56:18.336Z,4.90
2023-02-02T04:58:45.643Z,5.00
2023-02-02T05:01:18.353Z,5.00
2023-02-02T05:03:45.663Z,5.00
2023-02-02T05:06:15.459Z,5.00
2023-02-02T05:08:45.387Z,5.00
2023-02-02T05:11:15.100Z,5.00
2023-02-02T05:13:47.116Z,5.00
2023-02-02T05:16:14.828Z,5.00
2023-02-02T05:18:42.673Z,5.00
2023-02-02T05:21:10.018Z,5.00
2023-02-02T05:23:36.715Z,5.00
2023-02-02T05:26:03.517Z,5.00
2023-02-02T05:28:31.436Z,5.10
2023-02-02T05:30:58.272Z,5.10
2023-02-02T05:33:24.995Z,5.10
2023-02-02T05:35:52.767Z,5.00
2023-02-02T05:38:19.740Z,5.10
2023-02-02T05:40:48.995Z,5.00
2023-02-02T05:43:15.945Z,5.00
2023-02-02T05:45:42.754Z,5.10
2023-02-02T05:48:16.294Z,5.10
2023-02-02T05:50:46.857Z,5.10
2023-02-02T05:53:14.210Z,5.10
2023-02-02T05:55:41.009Z,5.20
2023-02-02T05:58:07.758Z,5.20
2023-02-02T06:00:34.449Z,5.20
2023-02-02T06:03:01.293Z,5.20
2023-02-02T06:05:28.037Z,5.20
2023-02-02T06:07:54.838Z,5.30
2023-02-02T06:10:21.686Z,5.30
2023-02-02T06:12:48.498Z,5.30
2023-02-02T06:15:15.311Z,5.30
2023-02-02T06:17:42.070Z,5.30
2023-02-02T06:20:09.480Z,5.30
2023-02-02T06:22:37.842Z,5.30
2023-02-02T06:25:05.552Z,5.30
2023-02-02T06:27:32.365Z,5.30
2023-02-02T06:29:59.188Z,5.30
2023-02-02T06:32:25.906Z,5.30
2023-02-02T06:34:52.688Z,5.30
2023-02-02T06:37:19.448Z,5.30
2023-02-02T06:39:46.197Z,5.30
2023-02-02T06:42:21.432Z,5.30
2023-02-02T06:44:48.810Z,5.30
2023-02-02T06:47:15.562Z,5.40
2023-02-02T06:49:42.319Z,5.40
2023-02-02T06:52:09.002Z,5.40
2023-02-02T06:54:35.761Z,5.30
2023-02-02T06:57:02.531Z,5.30
2023-02-02T06:59:29.288Z,5.30
2023-02-02T07:01:56.183Z,5.30
2023-02-02T07:04:23.141Z,5.30
2023-02-02T07:06:49.970Z,5.30
2023-02-02T07:09:17.023Z,5.30
2023-02-02T07:11:45.465Z,5.20
2023-02-02T07:14:12.715Z,5.00
2023-02-02T07:16:39.477Z,5.00
2023-02-02T07:19:06.304Z,4.90
2023-02-02T07:21:36.509Z,4.90
2023-02-02T07:24:05.354Z,4.80
2023-02-02T07:26:34.033Z,4.80
2023-02-02T07:29:00.849Z,4.90
2023-02-02T07:31:27.812Z,4.80
2023-02-02T07:33:54.829Z,4.80
2023-02-02T07:36:23.867Z,4.70
2023-02-02T07:38:54.308Z,4.70
2023-02-02T07:41:22.095Z,4.70
2023-02-02T07:43:50.092Z,4.80
2023-02-02T07:46:18.053Z,4.80
2023-02-02T07:48:44.911Z,4.80
2023-02-02T07:51:14.586Z,4.80
2023-02-02T07:53:46.719Z,4.80
2023-02-02T07:56:15.549Z,4.70
2023-02-02T07:58:43.411Z,4.80
2023-02-02T08:01:12.745Z,4.70
2023-02-02T08:03:40.644Z,4.80
2023-02-02T08:06:21.580Z,4.80
2023-02-02T08:08:49.009Z,4.80
2023-02-02T08:11:18.251Z,4.80
2023-02-02T08:13:48.033Z,4.80
2023-02-02T08:16:14.951Z,4.90
2023-02-02T08:18:42.338Z,4.90
2023-02-02T08:21:09.722Z,4.90
2023-02-02T08:23:38.282Z,4.90
2023-02-02T08:26:13.444Z,4.90
2023-02-02T08:28:41.724Z,4.90
2023-02-02T08:31:11.712Z,4.90
2023-02-02T08:33:39.604Z,4.80
2023-02-02T08:36:12.424Z,4.70
2023-02-02T08:38:39.479Z,4.70
2023-02-02T08:41:12.542Z,4.70
2023-02-02T08:43:40.345Z,4.80
2023-02-02T08:46:10.097Z,4.70
2023-02-02T08:48:37.510Z,4.80
2023-02-02T08:51:04.824Z,4.90
2023-02-02T08:53:32.818Z,4.90
2023-02-02T08:56:07.540Z,5.00
2023-02-02T08:58:34.545Z,5.00
2023-02-02T09:01:14.337Z,5.00
2023-02-02T09:03:41.899Z,5.00
2023-02-02T09:06:11.436Z,5.00
2023-02-02T09:08:39.044Z,5.00
2023-02-02T09:11:11.140Z,5.00
2023-02-02T09:13:39.412Z,5.10
2023-02-02T09:16:09.138Z,5.10
2023-02-02T09:18:36.079Z,5.20
2023-02-02T09:21:05.629Z,5.30
2023-02-02T09:23:34.203Z,5.20
2023-02-02T09:26:22.465Z,5.30
2023-02-02T09:29:02.611Z,5.30
2023-02-02T09:31:32.597Z,5.30
2023-02-02T09:34:07.516Z,5.20
2023-02-02T09:36:35.101Z,5.30
2023-02-02T09:39:02.143Z,5.30
2023-02-02T09:41:38.395Z,5.30
2023-02-02T09:44:25.572Z,5.30
2023-02-02T09:47:01.372Z,5.30
2023-02-02T09:49:47.682Z,5.50
2023-02-02T09:52:21.932Z,5.40
2023-02-02T09:54:52.251Z,5.30
2023-02-02T09:57:27.087Z,5.40
2023-02-02T09:59:55.054Z,5.50
2023-02-02T10:02:24.109Z,5.50
2023-02-02T10:04:56.056Z,5.50
2023-02-02T10:07:36.101Z,5.60
2023-02-02T10:10:13.128Z,5.60
2023-02-02T10:12:54.470Z,5.60
2023-02-02T10:15:35.111Z,5.60
2023-02-02T10:18:27.163Z,5.60
2023-02-02T10:21:24.624Z,5.70
2023-02-02T10:23:51.486Z,5.80
2023-02-02T10:26:21.163Z,5.80
2023-02-02T10:29:05.656Z,5.80
2023-02-02T10:32:01.898Z,5.90
2023-02-02T10:35:00.330Z,6.00
2023-02-02T10:37:54.169Z,6.00
2023-02-02T10:40:50.144Z,6.00
2023-02-02T10:43:47.869Z,6.00
2023-02-02T10:46:24.274Z,6.00
2023-02-02T10:48:56.566Z,6.10
2023-02-02T10:51:28.317Z,6.10
2023-02-02T10:53:58.786Z,6.10
2023-02-02T10:56:37.541Z,6.10
2023-02-02T10:59:34.153Z,6.20
2023-02-02T11:02:11.626Z,6.20
2023-02-02T11:05:00.820Z,6.30
2023-02-02T11:07:27.597Z,6.40
2023-02-02T11:09:54.302Z,6.50
2023-02-02T11:12:36.737Z,6.50
2023-02-02T11:15:22.388Z,6.50
2023-02-02T11:17:49.182Z,6.50
2023-02-02T11:20:34.121Z,6.60
2023-02-02T11:23:03.488Z,6.60
2023-02-02T11:25:36.233Z,6.50
2023-02-02T11:28:18.909Z,6.60
2023-02-02T11:30:52.333Z,6.50
2023-02-02T11:33:28.188Z,6.50
2023-02-02T11:35:59.078Z,6.60
2023-02-02T11:38:27.529Z,6.60
2023-02-02T11:41:00.938Z,6.60
2023-02-02T11:43:41.515Z,6.60
2023-02-02T11:46:27.836Z,6.60
2023-02-02T11:49:01.075Z,6.70
2023-02-02T11:51:29.759Z,6.70
2023-02-02T11:54:07.308Z,6.70
2023-02-02T11:56:38.896Z,6.70
2023-02-02T11:59:05.802Z,6.70
2023-02-02T12:01:34.611Z,6.80
2023-02-02T12:04:04.955Z,6.70
2023-02-02T12:06:38.096Z,6.80
2023-02-02T12:09:25.785Z,6.80
2023-02-02T12:12:30.405Z,6.90
2023-02-02T12:15:42.899Z,6.90
2023-02-02T12:18:41.949Z,7.00
2023-02-02T12:21:20.648Z,6.90
2023-02-02T12:24:15.840Z,6.90
2023-02-02T12:26:50.307Z,6.90
2023-02-02T12:29:46.056Z,6.90
2023-02-02T12:32:33.679Z,6.90
2023-02-02T12:35:38.395Z,6.90
2023-02-02T12:38:14.081Z,6.90
2023-02-02T12:41:09.833Z,6.90
2023-02-02T12:43:40.144Z,6.90
2023-02-02T12:46:27.979Z,6.80
2023-02-02T12:49:17.491Z,6.80
2023-02-02T12:52:03.422Z,6.80
2023-02-02T12:55:04.151Z,6.80
2023-02-02T12:57:55.932Z,6.80
2023-02-02T13:00:48.027Z,7.00
2023-02-02T13:03:24.746Z,6.90
2023-02-02T13:06:17.657Z,7.00
2023-02-02T13:09:07.671Z,7.00
2023-02-02T13:11:55.854Z,7.00
2023-02-02T13:14:43.427Z,6.90
2023-02-02T13:17:17.290Z,6.90
2023-02-02T13:19:51.620Z,6.90
2023-02-02T13:22:26.811Z,6.90
2023-02-02T13:25:00.148Z,7.00
2023-02-02T13:27:30.445Z,7.00
2023-02-02T13:30:20.371Z,7.00
2023-02-02T13:32:49.334Z,6.90
2023-02-02T13:35:37.295Z,7.00
2023-02-02T13:38:18.408Z,6.90
2023-02-02T13:40:45.155Z,6.90
2023-02-02T13:43:21.148Z,6.90
2023-02-02T13:45:58.032Z,6.90
2023-02-02T13:48:41.097Z,6.90
2023-02-02T13:51:26.272Z,6.90
2023-02-02T13:54:20.954Z,6.90
2023-02-02T13:57:06.613Z,6.90
2023-02-02T13:59:47.974Z,6.90
2023-02-02T14:02:35.623Z,6.90
2023-02-02T14:05:05.348Z,6.90
2023-02-02T14:07:46.316Z,7.00
2023-02-02T14:10:31.706Z,7.00
2023-02-02T14:13:29.430Z,7.00
2023-02-02T14:15:58.336Z,7.00
2023-02-02T14:18:55.988Z,6.90
2023-02-02T14:21:42.960Z,7.00
2023-02-02T14:24:36.805Z,6.90
2023-02-02T14:27:09.444Z,6.80
2023-02-02T14:29:39.379Z,6.80
2023-02-02T14:32:08.882Z,6.70
2023-02-02T14:34:40.283Z,6.70
2023-02-02T14:37:28.348Z,6.60
2023-02-02T14:40:07.252Z,6.60
2023-02-02T14:43:22.290Z,6.70
2023-02-02T14:46:10.622Z,6.60
2023-02-02T14:48:39.094Z,6.60
2023-02-02T14:51:15.151Z,6.50
2023-02-02T14:53:49.228Z,6.50
2023-02-02T14:56:17.434Z,6.40
2023-02-02T14:58:51.481Z,6.30
2023-02-02T15:01:18.299Z,6.30
2023-02-02T15:03:57.299Z,6.20
2023-02-02T15:06:26.846Z,6.10
2023-02-02T15:09:27.794Z,6.10
2023-02-02T15:12:03.636Z,5.90
2023-02-02T15:14:56.035Z,5.90
2023-02-02T15:17:40.308Z,5.90
2023-02-02T15:20:13.208Z,5.80
2023-02-02T15:23:04.777Z,5.70
2023-02-02T15:25:41.419Z,5.70
2023-02-02T15:28:28.415Z,5.60
2023-02-02T15:31:02.349Z,5.60
2023-02-02T15:33:31.213Z,5.60
2023-02-02T15:36:03.492Z,5.50
2023-02-02T15:38:39.778Z,5.50
2023-02-02T15:41:19.305Z,5.40
2023-02-02T15:43:46.749Z,5.30
2023-02-02T15:46:24.113Z,5.30
2023-02-02T15:49:32.863Z,5.30
2023-02-02T15:52:10.668Z,5.10
2023-02-02T15:54:40.225Z,5.00
2023-02-02T15:57:34.060Z,5.00
2023-02-02T16:00:23.124Z,5.00
2023-02-02T16:03:22.856Z,5.00
2023-02-02T16:05:55.968Z,4.90
2023-02-02T16:08:29.857Z,4.90
2023-02-02T16:11:14.863Z,4.90
2023-02-02T16:13:44.781Z,4.80
2023-02-02T16:16:24.152Z,4.90
2023-02-02T16:19:09.346Z,4.70
2023-02-02T16:21:46.534Z,4.70
2023-02-02T16:24:18.807Z,4.60
2023-02-02T16:26:46.098Z,4.60
2023-02-02T16:29:18.432Z,4.60
2023-02-02T16:31:50.333Z,4.50
2023-02-02T16:34:38.941Z,4.50
2023-02-02T16:37:16.094Z,4.50
2023-02-02T16:39:43.124Z,4.40
2023-02-02T16:42:31.538Z,4.30
2023-02-02T16:44:59.820Z,4.30
2023-02-02T16:47:26.620Z,4.30
2023-02-02T16:50:08.704Z,4.20
2023-02-02T16:52:59.339Z,4.30
2023-02-02T16:55:43.484Z,4.30
2023-02-02T16:58:19.706Z,4.30
2023-02-02T17:01:15.033Z,4.30
2023-02-02T17:03:55.255Z,4.30
2023-02-02T17:06:45.920Z,4.30
2023-02-02T17:09:34.025Z,4.30
2023-02-02T17:12:32.066Z,4.30
2023-02-02T17:15:17.225Z,4.30
2023-02-02T17:17:45.389Z,4.20
2023-02-02T17:20:13.678Z,4.20
2023-02-02T17:23:06.889Z,4.20
2023-02-02T17:25:41.395Z,4.20
2023-02-02T17:28:12.169Z,4.20
2023-02-02T17:30:43.706Z,4.20
2023-02-02T17:33:18.336Z,4.10
2023-02-02T17:35:55.623Z,4.10
2023-02-02T17:38:24.339Z,4.10
2023-02-02T17:40:51.597Z,4.10
2023-02-02T17:43:18.455Z,4.10
2023-02-02T17:45:45.417Z,4.10
2023-02-02T17:48:13.652Z,4.10
2023-02-02T17:50:41.654Z,4.10
2023-02-02T17:53:13.664Z,4.10
2023-02-02T17:55:44.696Z,4.00
2023-02-02T17:58:14.880Z,4.00
2023-02-02T18:00:42.464Z,4.10
2023-02-02T18:03:24.798Z,4.10
2023-02-02T18:05:51.696Z,4.10
2023-02-02T18:08:18.925Z,4.00
2023-02-02T18:10:45.679Z,4.00
2023-02-02T18:13:16.200Z,4.00
2023-02-02T18:15:43.528Z,4.00
2023-02-02T18:18:12.401Z,3.90
2023-02-02T18:20:43.265Z,4.00
2023-02-02T18:23:10.204Z,4.00
2023-02-02T18:25:37.680Z,3.90
2023-02-02T18:28:04.500Z,4.00
2023-02-02T18:30:32.373Z,3.90
2023-02-02T18:32:59.680Z,3.90
2023-02-02T18:35:27.011Z,3.90
2023-02-02T18:37:54.097Z,4.00
2023-02-02T18:40:20.833Z,4.00
2023-02-02T18:42:47.565Z,4.00
2023-02-02T18:45:14.371Z,3.90
2023-02-02T18:47:41.592Z,3.90
2023-02-02T18:50:08.931Z,3.90
2023-02-02T18:52:36.984Z,3.90
2023-02-02T18:55:03.883Z,3.90
2023-02-02T18:57:30.686Z,3.90
2023-02-02T18:59:57.398Z,3.90
2023-02-02T19:02:25.439Z,3.90
2023-02-02T19:05:10.742Z,3.90
2023-02-02T19:07:55.814Z,3.90
2023-02-02T19:10:24.827Z,3.90
2023-02-02T19:13:08.643Z,3.90
2023-02-02T19:15:38.428Z,3.90
2023-02-02T19:18:17.231Z,3.90
2023-02-02T19:20:44.248Z,3.90
2023-02-02T19:23:14.120Z,3.90
2023-02-02T19:25:42.905Z,3.80
2023-02-02T19:28:17.286Z,3.90
2023-02-02T19:30:45.253Z,3.90
2023-02-02T19:33:13.147Z,3.80
2023-02-02T19:35:40.617Z,3.70
2023-02-02T19:38:12.516Z,3.70
2023-02-02T19:40:40.338Z,3.70
2023-02-02T19:43:13.463Z,3.70
2023-02-02T19:45:40.954Z,3.70
2023-02-02T19:48:26.167Z,3.70
2023-02-02T19:50:54.990Z,3.70
2023-02-02T19:53:36.805Z,3.70
2023-02-02T19:56:23.403Z,3.70
2023-02-02T19:58:50.366Z,3.70
2023-02-02T20:01:20.828Z,3.70
2023-02-02T20:03:47.663Z,3.70
2023-02-02T20:06:25.948Z,3.70
2023-02-02T20:08:53.497Z,3.70
2023-02-02T20:11:31.830Z,3.70
2023-02-02T20:14:00.254Z,3.60
2023-02-02T20:16:40.642Z,3.60
2023-02-02T20:19:19.077Z,3.70
2023-02-02T20:21:48.331Z,3.70
2023-02-02T20:24:37.440Z,3.70
2023-02-02T20:27:22.475Z,3.60
2023-02-02T20:29:51.659Z,3.60
2023-02-02T20:32:30.046Z,3.70
2023-02-02T20:34:59.067Z,3.70
2023-02-02T20:37:35.021Z,3.60
2023-02-02T20:40:20.572Z,3.60
2023-02-02T20:42:48.567Z,3.60
2023-02-02T20:45:17.449Z,3.60
2023-02-02T20:47:45.082Z,3.60
2023-02-02T20:50:14.715Z,3.60
2023-02-02T20:52:42.085Z,3.60
2023-02-02T20:55:09.671Z,3.60
2023-02-02T20:57:38.444Z,3.60
2023-02-02T21:00:07.791Z,3.60
2023-02-02T21:02:34.862Z,3.60
2023-02-02T21:05:01.847Z,3.60
2023-02-02T21:07:28.631Z,3.60
2023-02-02T21:09:55.686Z,3.60
2023-02-02T21:12:25.458Z,3.60
2023-02-02T21:14:53.827Z,3.70
2023-02-02T21:17:20.752Z,3.70
2023-02-02T21:19:47.606Z,3.80
2023-02-02T21:22:14.690Z,3.80
2023-02-02T21:24:42.421Z,3.70
2023-02-02T21:27:09.433Z,3.80
2023-02-02T21:29:36.596Z,3.90
2023-02-02T21:32:03.881Z,3.90
2023-02-02T21:34:31.395Z,3.90
2023-02-02T21:36:58.576Z,4.00
2023-02-02T21:39:36.934Z,4.00
2023-02-02T21:42:17.274Z,4.00
2023-02-02T21:44:49.653Z,4.10
2023-02-02T21:47:19.215Z,4.20
2023-02-02T21:49:45.989Z,4.20
2023-02-02T21:52:15.803Z,4.30
2023-02-02T21:54:43.585Z,4.30
2023-02-02T21:57:32.462Z,4.40
2023-02-02T22:00:00.107Z,4.50
2023-02-02T22:02:44.487Z,4.50
2023-02-02T22:05:18.420Z,4.50
2023-02-02T22:07:47.601Z,4.70
2023-02-02T22:10:37.859Z,4.70
2023-02-02T22:13:23.201Z,4.70
2023-02-02T22:15:51.770Z,4.70
2023-02-02T22:18:23.893Z,5.00
2023-02-02T22:20:52.583Z,4.90
2023-02-02T22:23:21.345Z,4.90
2023-02-02T22:25:50.983Z,4.90
2023-02-02T22:28:22.328Z,4.90
2023-02-02T22:30:51.670Z,5.00
2023-02-02T22:33:18.967Z,5.20
2023-02-02T22:35:46.436Z,5.40
2023-02-02T22:38:18.588Z,5.30
2023-02-02T22:40:49.466Z,5.30
2023-02-02T22:43:18.009Z,5.60
2023-02-02T22:45:45.554Z,5.70
2023-02-02T22:48:13.644Z,5.70
2023-02-02T22:50:40.728Z,5.90
2023-02-02T22:53:07.573Z,6.10
2023-02-02T22:55:35.536Z,6.30
2023-02-02T22:58:02.714Z,6.40
2023-02-02T23:00:34.841Z,6.50
2023-02-02T23:03:01.820Z,6.60
2023-02-02T23:05:28.772Z,6.60
2023-02-02T23:07:56.421Z,6.70
2023-02-02T23:10:26.042Z,6.70
2023-02-02T23:12:55.104Z,6.70
2023-02-02T23:15:22.093Z,6.80
2023-02-02T23:17:49.163Z,6.70
2023-02-02T23:20:16.592Z,6.80
2023-02-02T23:22:43.574Z,6.80
2023-02-02T23:25:11.367Z,6.90
2023-02-02T23:27:38.228Z,6.90
2023-02-02T23:30:07.445Z,6.90
2023-02-02T23:32:34.957Z,7.00
2023-02-02T23:35:01.876Z,7.00
2023-02-02T23:37:28.777Z,7.00
2023-02-02T23:39:55.503Z,7.00
2023-02-02T23:42:22.334Z,7.00
2023-02-02T23:44:49.024Z,7.00
2023-02-02T23:47:16.060Z,7.10
2023-02-02T23:49:43.298Z,7.20
2023-02-02T23:52:10.500Z,7.20
2023-02-02T23:54:37.531Z,7.20
2023-02-02T23:57:04.594Z,7.20
2023-02-02T23:59:31.529Z,7.20
